createdAt,value
2018-01-28T00:01:17.604Z,102179.89
2018-01-28T00:03:45.615Z,102197.43
2018-01-28T00:06:13.376Z,102188.60
2018-01-28T00:08:41.130Z,102197.73
2018-01-28T00:11:08.879Z,102175.14
2018-01-28T00:13:36.660Z,102185.70
2018-01-28T00:16:07.102Z,102172.77
2018-01-28T00:18:36.447Z,102164.91
2018-01-28T00:21:04.640Z,102167.46
2018-01-28T00:23:32.426Z,102170.03
2018-01-28T00:26:00.251Z,102158.84
2018-01-28T00:28:28.440Z,102175.94
2018-01-28T00:30:56.320Z,102186.23
2018-01-28T00:33:24.311Z,102188.38
2018-01-28T00:35:52.091Z,102186.19
2018-01-28T00:38:19.808Z,102180.30
2018-01-28T00:40:47.556Z,102180.33
2018-01-28T00:43:15.306Z,102178.86
2018-01-28T00:45:43.816Z,102178.52
2018-01-28T00:48:11.564Z,102180.03
2018-01-28T00:50:39.377Z,102165.83
2018-01-28T00:53:07.133Z,102168.91
2018-01-28T00:55:34.794Z,102161.36
2018-01-28T00:58:02.648Z,102160.40
2018-01-28T01:00:30.356Z,102179.52
2018-01-28T01:02:58.076Z,102171.47
2018-01-28T01:05:26.268Z,102160.73
2018-01-28T01:07:54.018Z,102155.63
2018-01-28T01:10:26.506Z,102156.72
2018-01-28T01:12:54.740Z,102150.11
2018-01-28T01:15:22.546Z,102176.30
2018-01-28T01:17:50.301Z,102170.48
2018-01-28T01:20:18.400Z,102181.94
2018-01-28T01:22:46.282Z,102188.84
2018-01-28T01:25:14.357Z,102197.26
2018-01-28T01:27:42.228Z,102194.19
2018-01-28T01:30:10.466Z,102192.32
2018-01-28T01:32:38.216Z,102175.22
2018-01-28T01:35:05.991Z,102177.75
2018-01-28T01:37:33.751Z,102179.42
2018-01-28T01:40:01.505Z,102195.51
2018-01-28T01:42:29.291Z,102178.86
2018-01-28T01:44:57.257Z,102182.77
2018-01-28T01:47:25.042Z,102194.11
2018-01-28T01:49:52.810Z,102188.33
2018-01-28T01:52:21.252Z,102191.52
2018-01-28T01:54:49.037Z,102195.50
2018-01-28T01:57:16.774Z,102185.77
2018-01-28T01:59:44.981Z,102196.81
2018-01-28T02:02:12.795Z,102194.38
2018-01-28T02:04:41.002Z,102195.33
2018-01-28T02:07:08.877Z,102214.41
2018-01-28T02:09:36.625Z,102234.38
2018-01-28T02:12:04.587Z,102218.62
2018-01-28T02:14:32.334Z,102214.05
2018-01-28T02:17:00.150Z,102221.63
2018-01-28T02:19:27.919Z,102215.85
2018-01-28T02:21:55.659Z,102230.17
2018-01-28T02:24:23.710Z,102223.33
2018-01-28T02:26:51.438Z,102242.92
2018-01-28T02:29:19.205Z,102237.27
2018-01-28T02:31:47.019Z,102236.11
2018-01-28T02:34:14.811Z,102236.53
2018-01-28T02:36:42.954Z,102232.66
2018-01-28T02:39:11.220Z,102212.87
2018-01-28T02:41:38.988Z,102208.17
2018-01-28T02:44:06.813Z,102195.80
2018-01-28T02:46:35.038Z,102198.70
2018-01-28T02:49:02.766Z,102202.63
2018-01-28T02:51:30.495Z,102201.34
2018-01-28T02:53:58.510Z,102203.89
2018-01-28T02:56:26.242Z,102214.37
2018-01-28T02:58:54.019Z,102214.95
2018-01-28T03:01:21.778Z,102220.81
2018-01-28T03:03:49.543Z,102214.10
2018-01-28T03:06:17.302Z,102197.38
2018-01-28T03:08:45.178Z,102197.11
2018-01-28T03:11:12.957Z,102212.15
2018-01-28T03:13:40.731Z,102215.00
2018-01-28T03:16:08.572Z,102209.11
2018-01-28T03:18:36.401Z,102210.98
2018-01-28T03:21:04.170Z,102232.77
2018-01-28T03:23:32.081Z,102241.84
2018-01-28T03:25:59.799Z,102241.72
2018-01-28T03:28:27.556Z,102246.34
2018-01-28T03:30:55.332Z,102248.81
2018-01-28T03:33:23.159Z,102257.22
2018-01-28T03:35:50.966Z,102257.91
2018-01-28T03:38:18.840Z,102250.65
2018-01-28T03:40:46.610Z,102251.30
2018-01-28T03:43:15.924Z,102252.53
2018-01-28T03:45:45.686Z,102261.20
2018-01-28T03:48:13.415Z,102263.34
2018-01-28T03:50:41.207Z,102263.11
2018-01-28T03:53:08.995Z,102275.14
2018-01-28T03:55:36.811Z,102296.27
2018-01-28T03:58:04.532Z,102299.50
2018-01-28T04:00:32.434Z,102282.36
2018-01-28T04:03:00.135Z,102279.80
2018-01-28T04:05:27.847Z,102288.74
2018-01-28T04:07:55.593Z,102296.86
2018-01-28T04:10:23.283Z,102294.44
2018-01-28T04:12:51.070Z,102296.89
2018-01-28T04:15:18.839Z,102291.33
2018-01-28T04:17:46.639Z,102302.84
2018-01-28T04:20:14.324Z,102316.00
2018-01-28T04:22:42.119Z,102326.27
2018-01-28T04:25:09.855Z,102318.72
2018-01-28T04:27:37.630Z,102320.33
2018-01-28T04:30:05.460Z,102318.30
2018-01-28T04:32:33.200Z,102322.50
2018-01-28T04:35:00.965Z,102310.34
2018-01-28T04:37:28.664Z,102308.42
2018-01-28T04:39:56.443Z,102311.84
2018-01-28T04:42:24.221Z,102310.99
2018-01-28T04:44:52.047Z,102302.72
2018-01-28T04:47:19.806Z,102305.02
2018-01-28T04:49:47.567Z,102312.88
2018-01-28T04:52:15.333Z,102309.23
2018-01-28T04:54:43.094Z,102313.16
2018-01-28T04:57:10.941Z,102307.22
2018-01-28T04:59:39.032Z,102311.01
2018-01-28T05:02:06.832Z,102324.67
2018-01-28T05:04:35.185Z,102314.78
2018-01-28T05:07:02.921Z,102307.78
2018-01-28T05:09:30.820Z,102322.95
2018-01-28T05:11:58.881Z,102326.21
2018-01-28T05:14:26.628Z,102346.23
2018-01-28T05:16:54.425Z,102347.08
2018-01-28T05:19:22.170Z,102349.81
2018-01-28T05:21:49.959Z,102366.99
2018-01-28T05:24:17.697Z,102362.56
2018-01-28T05:26:45.485Z,102358.52
2018-01-28T05:29:13.203Z,102359.05
2018-01-28T05:31:41.328Z,102366.41
2018-01-28T05:34:09.115Z,102362.84
2018-01-28T05:36:36.888Z,102355.56
2018-01-28T05:39:04.712Z,102367.61
2018-01-28T05:41:32.416Z,102372.73
2018-01-28T05:44:00.568Z,102375.33
2018-01-28T05:46:28.311Z,102380.44
2018-01-28T05:48:56.147Z,102371.12
2018-01-28T05:51:23.871Z,102363.13
2018-01-28T05:53:51.627Z,102365.03
2018-01-28T05:56:19.355Z,102371.82
2018-01-28T05:58:47.103Z,102389.78
2018-01-28T06:01:15.270Z,102383.70
2018-01-28T06:03:43.002Z,102393.02
2018-01-28T06:06:10.699Z,102397.50
2018-01-28T06:08:38.442Z,102387.48
2018-01-28T06:11:06.217Z,102383.70
2018-01-28T06:13:33.946Z,102391.54
2018-01-28T06:16:01.728Z,102389.37
2018-01-28T06:18:29.513Z,102398.16
2018-01-28T06:20:57.348Z,102402.06
2018-01-28T06:23:25.110Z,102413.46
2018-01-28T06:25:52.847Z,102415.34
2018-01-28T06:28:20.593Z,102427.11
2018-01-28T06:30:48.317Z,102423.27
2018-01-28T06:33:16.076Z,102440.80
2018-01-28T06:35:43.860Z,102452.00
2018-01-28T06:38:11.640Z,102460.27
2018-01-28T06:40:39.370Z,102456.34
2018-01-28T06:43:07.107Z,102459.83
2018-01-28T06:45:36.402Z,102470.94
2018-01-28T06:48:04.109Z,102475.00
2018-01-28T06:50:32.275Z,102475.41
2018-01-28T06:53:00.072Z,102471.74
2018-01-28T06:55:27.974Z,102471.17
2018-01-28T06:57:56.023Z,102472.64
2018-01-28T07:00:25.875Z,102465.06
2018-01-28T07:02:56.610Z,102461.95
2018-01-28T07:05:24.496Z,102457.69
2018-01-28T07:07:52.331Z,102451.73
2018-01-28T07:10:20.141Z,102443.93
2018-01-28T07:12:48.144Z,102452.15
2018-01-28T07:15:25.600Z,102454.18
2018-01-28T07:17:54.872Z,102461.18
2018-01-28T07:20:23.311Z,102460.06
2018-01-28T07:22:51.158Z,102466.38
2018-01-28T07:25:24.196Z,102469.78
2018-01-28T07:28:02.149Z,102480.29
2018-01-28T07:30:30.211Z,102485.56
2018-01-28T07:32:57.948Z,102493.70
2018-01-28T07:35:26.616Z,102506.11
2018-01-28T07:37:54.446Z,102512.31
2018-01-28T07:40:22.323Z,102515.55
2018-01-28T07:42:51.186Z,102513.22
2018-01-28T07:45:18.975Z,102507.56
2018-01-28T07:47:46.785Z,102493.99
2018-01-28T07:50:17.277Z,102487.59
2018-01-28T07:52:45.386Z,102482.34
2018-01-28T07:55:14.192Z,102488.78
2018-01-28T07:57:42.137Z,102510.82
2018-01-28T08:00:10.137Z,102508.50
2018-01-28T08:02:40.027Z,102511.20
2018-01-28T08:05:12.323Z,102530.39
2018-01-28T08:07:40.311Z,102526.55
2018-01-28T08:13:23.946Z,102515.84
2018-01-28T08:15:53.486Z,102513.39
2018-01-28T08:18:21.704Z,102511.78
2018-01-28T08:20:51.449Z,102514.07
2018-01-28T08:23:19.323Z,102526.03
2018-01-28T08:25:47.077Z,102541.87
2018-01-28T08:28:17.276Z,102543.09
2018-01-28T08:30:45.143Z,102543.38
2018-01-28T08:33:12.923Z,102559.56
2018-01-28T08:35:40.774Z,102556.73
2018-01-28T08:38:08.559Z,102563.78
2018-01-28T08:40:36.336Z,102565.80
2018-01-28T08:43:05.345Z,102558.75
2018-01-28T08:45:35.026Z,102549.30
2018-01-28T08:48:04.706Z,102546.98
2018-01-28T08:50:36.985Z,102554.73
2018-01-28T08:53:08.561Z,102569.22
2018-01-28T08:55:36.303Z,102560.27
2018-01-28T08:58:04.898Z,102573.53
2018-01-28T09:00:32.792Z,102566.42
2018-01-28T09:03:00.549Z,102551.50
2018-01-28T09:05:29.853Z,102554.88
2018-01-28T09:07:57.518Z,102541.27
2018-01-28T09:10:25.334Z,102537.18
2018-01-28T09:13:01.620Z,102544.26
2018-01-28T09:15:29.712Z,102539.81
2018-01-28T09:17:57.384Z,102540.66
2018-01-28T09:20:25.129Z,102550.05
2018-01-28T09:22:52.854Z,102545.90
2018-01-28T09:25:20.647Z,102538.91
2018-01-28T09:27:48.396Z,102551.50
2018-01-28T09:30:16.108Z,102549.38
2018-01-28T09:32:43.827Z,102568.63
2018-01-28T09:35:11.511Z,102563.34
2018-01-28T09:37:39.194Z,102570.84
2018-01-28T09:40:07.434Z,102564.11
2018-01-28T09:42:35.247Z,102557.61
2018-01-28T09:45:02.982Z,102559.98
2018-01-28T09:47:30.781Z,102565.84
2018-01-28T09:49:58.982Z,102549.61
2018-01-28T09:52:27.165Z,102553.98
2018-01-28T09:54:54.897Z,102568.08
2018-01-28T09:57:22.565Z,102550.02
2018-01-28T09:59:50.708Z,102549.05
2018-01-28T10:02:18.418Z,102547.61
2018-01-28T10:04:46.163Z,102551.98
2018-01-28T10:07:16.235Z,102560.29
2018-01-28T10:09:43.975Z,102561.93
2018-01-28T10:12:11.686Z,102561.53
2018-01-28T10:14:39.502Z,102545.72
2018-01-28T10:17:07.597Z,102555.47
2018-01-28T10:19:35.314Z,102555.21
2018-01-28T10:22:03.099Z,102562.42
2018-01-28T10:24:34.823Z,102567.08
2018-01-28T10:27:02.868Z,102565.84
2018-01-28T10:29:30.689Z,102559.95
2018-01-28T10:31:58.449Z,102558.77
2018-01-28T10:34:26.651Z,102548.69
2018-01-28T10:36:54.828Z,102536.41
2018-01-28T10:39:22.634Z,102536.55
2018-01-28T10:41:50.385Z,102551.39
2018-01-28T10:44:18.361Z,102551.83
2018-01-28T10:46:46.130Z,102562.00
2018-01-28T10:49:13.911Z,102555.67
2018-01-28T10:51:41.699Z,102563.42
2018-01-28T10:54:09.477Z,102548.95
2018-01-28T10:56:37.262Z,102546.66
2018-01-28T10:59:04.992Z,102555.75
2018-01-28T11:01:32.730Z,102557.62
2018-01-28T11:04:00.528Z,102565.91
2018-01-28T11:06:28.461Z,102570.80
2018-01-28T11:08:56.196Z,102586.73
2018-01-28T11:11:23.857Z,102588.88
2018-01-28T11:13:51.590Z,102601.06
2018-01-28T11:16:19.456Z,102594.42
2018-01-28T11:18:47.194Z,102602.55
2018-01-28T11:21:14.939Z,102609.45
2018-01-28T11:23:42.659Z,102611.77
2018-01-28T11:26:10.415Z,102611.44
2018-01-28T11:28:38.495Z,102612.62
2018-01-28T11:31:06.159Z,102611.75
2018-01-28T11:33:34.230Z,102610.59
2018-01-28T11:36:01.906Z,102619.17
2018-01-28T11:38:29.605Z,102603.16
2018-01-28T11:40:57.323Z,102596.52
2018-01-28T11:43:25.374Z,102594.48
2018-01-28T11:45:53.463Z,102601.89
2018-01-28T11:48:21.223Z,102600.31
2018-01-28T11:50:48.998Z,102594.89
2018-01-28T11:53:16.662Z,102595.00
2018-01-28T11:55:44.388Z,102602.47
2018-01-28T11:58:12.143Z,102594.73
2018-01-28T12:00:39.865Z,102605.20
2018-01-28T12:03:07.537Z,102598.45
2018-01-28T12:05:35.297Z,102593.19
2018-01-28T12:08:03.099Z,102595.56
2018-01-28T12:10:30.903Z,102590.21
2018-01-28T12:12:58.614Z,102592.26
2018-01-28T12:15:26.328Z,102581.59
2018-01-28T12:17:54.053Z,102585.27
2018-01-28T12:20:21.752Z,102587.08
2018-01-28T12:22:49.446Z,102583.99
2018-01-28T12:25:17.255Z,102581.44
2018-01-28T12:27:45.364Z,102586.73
2018-01-28T12:30:13.452Z,102578.33
2018-01-28T12:32:41.307Z,102584.56
2018-01-28T12:35:15.221Z,102574.66
2018-01-28T12:37:43.486Z,102565.08
2018-01-28T12:40:11.219Z,102564.53
2018-01-28T12:42:38.938Z,102570.23
2018-01-28T12:45:06.989Z,102562.37
2018-01-28T12:47:34.660Z,102564.71
2018-01-28T12:50:02.330Z,102556.33
2018-01-28T12:52:30.143Z,102551.59
2018-01-28T12:54:57.831Z,102544.20
2018-01-28T12:57:25.528Z,102546.09
2018-01-28T12:59:53.873Z,102539.74
2018-01-28T13:02:25.440Z,102544.21
2018-01-28T13:04:53.199Z,102533.12
2018-01-28T13:07:20.945Z,102530.84
2018-01-28T13:09:48.743Z,102527.05
2018-01-28T13:12:19.459Z,102527.61
2018-01-28T13:14:47.218Z,102531.03
2018-01-28T13:17:14.966Z,102536.98
2018-01-28T13:19:42.702Z,102522.23
2018-01-28T13:22:10.346Z,102514.78
2018-01-28T13:24:38.856Z,102521.17
2018-01-28T13:27:10.335Z,102516.61
2018-01-28T13:29:38.103Z,102517.44
2018-01-28T13:32:05.845Z,102518.81
2018-01-28T13:34:33.649Z,102520.98
2018-01-28T13:37:01.421Z,102517.44
2018-01-28T13:39:30.055Z,102523.98
2018-01-28T13:41:57.826Z,102518.13
2018-01-28T13:44:25.539Z,102508.77
2018-01-28T13:46:53.304Z,102512.55
2018-01-28T13:49:21.396Z,102505.90
2018-01-28T13:51:49.224Z,102503.98
2018-01-28T13:54:17.624Z,102495.98
2018-01-28T13:56:45.890Z,102484.60
2018-01-28T13:59:13.649Z,102489.89
2018-01-28T14:01:41.417Z,102482.16
2018-01-28T14:04:09.161Z,102486.09
2018-01-28T14:06:38.079Z,102487.98
2018-01-28T14:09:05.842Z,102484.73
2018-01-28T14:11:35.828Z,102483.23
2018-01-28T14:14:06.413Z,102482.80
2018-01-28T14:16:34.160Z,102475.60
2018-01-28T14:19:05.720Z,102471.13
2018-01-28T14:21:33.457Z,102471.11
2018-01-28T14:24:01.213Z,102471.78
2018-01-28T14:26:29.029Z,102478.98
2018-01-28T14:28:56.779Z,102475.55
2018-01-28T14:31:24.642Z,102467.13
2018-01-28T14:33:52.387Z,102462.12
2018-01-28T14:36:20.153Z,102464.52
2018-01-28T14:38:48.575Z,102463.86
2018-01-28T14:41:17.486Z,102467.48
2018-01-28T14:43:46.928Z,102473.70
2018-01-28T14:46:14.650Z,102460.42
2018-01-28T14:48:43.581Z,102463.83
2018-01-28T14:51:11.288Z,102465.20
2018-01-28T14:53:39.101Z,102469.38
2018-01-28T14:56:06.843Z,102473.17
2018-01-28T14:58:35.158Z,102465.69
2018-01-28T15:01:02.898Z,102470.45
2018-01-28T15:03:31.094Z,102462.73
2018-01-28T15:05:58.750Z,102466.20
2018-01-28T15:08:26.491Z,102465.27
2018-01-28T15:10:54.339Z,102470.13
2018-01-28T15:13:22.030Z,102461.06
2018-01-28T15:15:49.775Z,102465.81
2018-01-28T15:18:18.702Z,102468.11
2018-01-28T15:20:46.380Z,102479.11
2018-01-28T15:23:14.348Z,102481.83
2018-01-28T15:25:43.178Z,102474.08
2018-01-28T15:28:10.963Z,102481.54
2018-01-28T15:30:40.435Z,102470.69
2018-01-28T15:33:08.166Z,102468.26
2018-01-28T15:35:39.059Z,102472.83
2018-01-28T15:38:07.025Z,102469.61
2018-01-28T15:40:38.361Z,102462.27
2018-01-28T15:43:28.597Z,102471.52
2018-01-28T15:46:36.555Z,102471.67
2018-01-28T16:12:22.064Z,102452.31
2018-01-28T16:14:54.460Z,102453.14
2018-01-28T16:17:22.464Z,102454.36
2018-01-28T16:22:51.272Z,102455.70
2018-01-28T16:25:19.212Z,102457.18
2018-01-28T16:28:00.748Z,102461.39
2018-01-28T16:30:28.587Z,102463.59
2018-01-28T16:33:22.103Z,102463.59
2018-01-28T16:35:58.078Z,102465.88
2018-01-28T16:38:25.855Z,102466.16
2018-01-28T16:40:53.624Z,102467.90
2018-01-28T16:43:21.373Z,102468.33
2018-01-28T16:45:52.599Z,102464.41
2018-01-28T16:48:20.409Z,102475.27
2018-01-28T16:50:48.201Z,102477.44
2018-01-28T16:53:15.979Z,102475.55
2018-01-28T16:55:43.727Z,102481.23
2018-01-28T16:58:16.747Z,102483.44
2018-01-28T17:00:44.951Z,102470.53
2018-01-28T17:03:12.672Z,102484.65
2018-01-28T17:05:42.043Z,102477.31
2018-01-28T17:08:09.803Z,102463.48
2018-01-28T17:10:38.484Z,102479.38
2018-01-28T17:13:13.284Z,102478.69
2018-01-28T17:15:43.765Z,102485.58
2018-01-28T17:18:14.322Z,102483.95
2018-01-28T17:20:42.057Z,102480.44
2018-01-28T17:23:09.774Z,102478.38
2018-01-28T17:25:41.308Z,102484.91
2018-01-28T17:28:09.048Z,102486.12
2018-01-28T17:30:45.893Z,102485.17
2018-01-28T17:33:13.716Z,102491.95
2018-01-28T17:35:49.836Z,102484.91
2018-01-28T17:38:17.616Z,102483.94
2018-01-28T17:40:50.235Z,102484.20
2018-01-28T17:43:18.065Z,102482.46
2018-01-28T17:45:47.918Z,102485.69
2018-01-28T17:48:17.201Z,102474.46
2018-01-28T17:50:44.889Z,102485.98
2018-01-28T17:53:13.292Z,102486.13
2018-01-28T17:55:42.929Z,102485.16
2018-01-28T17:58:10.951Z,102475.00
2018-01-28T18:00:38.699Z,102466.06
2018-01-28T18:03:07.423Z,102476.91
2018-01-28T18:05:37.375Z,102494.66
2018-01-28T18:08:05.180Z,102495.61
2018-01-28T18:10:33.227Z,102491.70
2018-01-28T18:13:01.040Z,102498.73
2018-01-28T18:15:28.781Z,102488.98
2018-01-28T18:17:57.700Z,102495.77
2018-01-28T18:20:25.484Z,102495.90
2018-01-28T18:22:53.979Z,102502.54
2018-01-28T18:25:22.477Z,102502.92
2018-01-28T18:27:50.422Z,102505.92
2018-01-28T18:30:21.197Z,102508.50
2018-01-28T18:32:50.415Z,102518.83
2018-01-28T18:35:20.112Z,102509.70
2018-01-28T18:37:48.902Z,102504.69
2018-01-28T18:40:18.853Z,102505.11
2018-01-28T18:42:46.778Z,102505.52
2018-01-28T18:45:14.493Z,102504.14
2018-01-28T18:48:09.195Z,102504.66
2018-01-28T18:50:37.106Z,102507.92
2018-01-28T18:53:12.108Z,102508.74
2018-01-28T18:55:43.928Z,102506.71
2018-01-28T18:58:16.851Z,102507.91
2018-01-28T19:00:49.889Z,102511.30
2018-01-28T19:03:24.826Z,102507.36
2018-01-28T19:05:56.915Z,102507.50
2018-01-28T19:16:40.483Z,102511.06
2018-01-28T19:19:08.280Z,102521.48
2018-01-28T19:21:36.099Z,102519.06
2018-01-28T19:24:04.002Z,102522.44
2018-01-28T19:26:32.247Z,102516.73
2018-01-28T19:29:01.749Z,102522.45
2018-01-28T19:31:52.588Z,102516.47
2018-01-28T19:34:20.596Z,102520.83
2018-01-28T19:37:00.757Z,102518.37
2018-01-28T19:39:29.862Z,102520.16
2018-01-28T19:44:37.395Z,102515.80
2018-01-28T19:47:05.654Z,102513.38
2018-01-28T19:49:38.676Z,102524.48
2018-01-28T19:52:06.545Z,102517.00
2018-01-28T19:54:43.309Z,102518.08
2018-01-28T19:57:52.491Z,102518.36
2018-01-28T20:00:21.955Z,102523.92
2018-01-28T20:02:52.380Z,102513.89
2018-01-28T20:05:21.956Z,102534.36
2018-01-28T20:07:49.753Z,102538.42
2018-01-28T20:10:17.577Z,102520.12
2018-01-28T20:12:45.508Z,102531.64
2018-01-28T20:15:13.308Z,102521.34
2018-01-28T20:17:41.172Z,102534.20
2018-01-28T20:20:08.992Z,102516.33
2018-01-28T20:22:43.705Z,102521.48
2018-01-28T20:25:12.266Z,102520.95
2018-01-28T20:27:40.047Z,102513.22
2018-01-28T20:30:07.874Z,102503.45
2018-01-28T20:32:35.903Z,102500.21
2018-01-28T20:35:10.341Z,102500.59
2018-01-28T20:37:39.498Z,102499.23
2018-01-28T20:40:07.319Z,102501.44
2018-01-28T20:42:36.350Z,102500.87
2018-01-28T20:45:04.457Z,102505.73
2018-01-28T20:47:34.122Z,102499.11
2018-01-28T20:50:01.933Z,102505.35
2018-01-28T20:52:33.340Z,102490.84
2018-01-28T20:55:01.195Z,102495.33
2018-01-28T20:57:29.955Z,102497.39
2018-01-28T20:59:57.909Z,102488.41
2018-01-28T21:02:38.638Z,102501.70
2018-01-28T21:05:06.420Z,102498.48
2018-01-28T21:07:35.298Z,102497.38
2018-01-28T21:10:03.094Z,102491.56
2018-01-28T21:12:32.181Z,102491.42
2018-01-28T21:15:00.055Z,102498.36
2018-01-28T21:17:30.863Z,102483.17
2018-01-28T21:19:59.333Z,102493.47
2018-01-28T21:22:30.861Z,102488.19
2018-01-28T21:24:58.665Z,102474.48
2018-01-28T21:27:26.385Z,102482.76
2018-01-28T21:29:54.193Z,102476.66
2018-01-28T21:32:23.866Z,102485.36
2018-01-28T21:34:51.675Z,102469.88
2018-01-28T21:37:24.062Z,102478.72
2018-01-28T21:39:51.888Z,102482.92
2018-01-28T21:42:19.990Z,102488.74
2018-01-28T21:44:47.740Z,102480.87
2018-01-28T21:47:17.033Z,102478.86
2018-01-28T21:49:54.805Z,102483.59
2018-01-28T21:52:25.414Z,102478.59
2018-01-28T21:54:54.396Z,102483.46
2018-01-28T21:57:28.757Z,102480.23
2018-01-28T21:59:56.634Z,102482.11
2018-01-28T22:02:24.397Z,102484.16
2018-01-28T22:04:52.138Z,102465.17
2018-01-28T22:07:19.876Z,102471.96
2018-01-28T22:09:47.643Z,102467.34
2018-01-28T22:12:15.407Z,102483.06
2018-01-28T22:14:43.189Z,102478.20
2018-01-28T22:17:10.904Z,102471.13
2018-01-28T22:19:38.884Z,102466.26
2018-01-28T22:22:11.642Z,102459.34
2018-01-28T22:24:42.124Z,102464.22
2018-01-28T22:27:14.973Z,102466.94
2018-01-28T22:29:42.986Z,102466.79
2018-01-28T22:34:46.248Z,102479.71
2018-01-28T22:37:22.278Z,102469.38
2018-01-28T22:39:50.074Z,102479.43
2018-01-28T22:42:23.279Z,102478.63
2018-01-28T22:44:51.186Z,102478.75
2018-01-28T22:47:18.947Z,102481.70
2018-01-28T22:49:53.607Z,102472.62
2018-01-28T22:52:26.806Z,102477.91
2018-01-28T22:54:56.187Z,102470.72
2018-01-28T22:57:35.874Z,102472.22
2018-01-28T23:00:03.729Z,102467.88
2018-01-28T23:02:31.477Z,102463.00
2018-01-28T23:05:01.179Z,102466.14
2018-01-28T23:07:28.889Z,102471.43
2018-01-28T23:09:56.684Z,102466.00
2018-01-28T23:12:24.497Z,102458.27
2018-01-28T23:14:55.173Z,102454.45
2018-01-28T23:17:24.258Z,102461.80
2018-01-28T23:19:52.052Z,102462.87
2018-01-28T23:22:19.811Z,102465.73
2018-01-28T23:24:47.931Z,102466.28
2018-01-28T23:27:15.693Z,102459.75
2018-01-28T23:29:44.084Z,102466.66
2018-01-28T23:32:11.769Z,102466.14
2018-01-28T23:34:40.616Z,102463.30
2018-01-28T23:37:08.463Z,102458.02
2018-01-28T23:39:36.244Z,102463.82
2018-01-28T23:42:04.052Z,102459.50
2018-01-28T23:44:31.843Z,102456.09
2018-01-28T23:46:59.537Z,102453.80
2018-01-28T23:49:27.426Z,102452.58
2018-01-28T23:51:55.484Z,102455.81
2018-01-28T23:54:23.212Z,102448.62
2018-01-28T23:56:50.956Z,102449.31
2018-01-28T23:59:18.736Z,102440.37
